Estación Meteorológica Peña el Pijo (Robertgarden) [ 02/21/18 08:28:12 CET ]

Fecha Hora Presion(HPa) Temp (°C) Humedad % Rocio (°C) Viento ( m/s) Direccion Lluvia 1Hora(mm) Lluvia 24H(mm) LLuvia Total(mm)
2018-Feb-12 01:02:04 1008.600 7.1 75 2.9         76.66
2018-Feb-12 02:01:46 1008.100 7.1 76 3.1         76.66
2018-Feb-12 03:01:50 1007.300 7.4 76 3.4         76.66
2018-Feb-12 04:06:18 1006.700 7.2 75 3.0 1.8 NW     76.66
2018-Feb-12 05:01:35 1006.400 7.5 76 3.5         76.66
2018-Feb-12 06:01:39 1006.000 7.4 75 3.2         76.66
2018-Feb-12 07:01:39 1006.000 7.1 75 2.9         76.66
2018-Feb-12 08:01:32 1006.300 7.2 74 2.9         76.66
2018-Feb-12 09:01:49 1006.500 6.6 77 2.8         76.66
2018-Feb-12 10:01:48 1006.300 7.4 76 3.4         76.66
2018-Feb-12 11:01:41 1006.400 7.9 74 3.6         76.66
2018-Feb-12 12:01:47 1007.000 7.9 75 3.8         76.66
2018-Feb-12 13:01:57 1006.300 6.9 79 3.5     1.55 1.55 78.21
2018-Feb-12 14:01:53 1005.300 8.4 72 3.6       1.55 78.21
2018-Feb-12 15:01:46 1005.000 8.8 70 3.6       1.55 78.21
2018-Feb-12 16:01:39 1005.600 5.4 76 1.5     1.55 3.10 79.77
2018-Feb-12 17:02:00 1006.000 4.3 80 1.2     1.03 4.14 80.80
2018-Feb-12 18:01:51 1006.700 3.3 82 0.5     1.03 5.18 81.84
2018-Feb-12 19:01:53 1007.400 2.9 84 0.4       5.18 81.84
2018-Feb-12 20:01:47 1007.800 2.5 85 0.2       5.18 81.84
2018-Feb-12 21:01:47 1008.200 1.8 84 -0.7       5.18 81.84
2018-Feb-12 22:01:47 1008.700 0.3 85 -1.9       5.18 81.84
2018-Feb-12 23:01:50 1009.100 -0.4 86 -2.4       5.18 81.84

Temperatura Máxima:    Temperatura Mínima:
Presión Máxima:1009.100 Hpa    Presión Mínima:1005.000 Hpa


Volver